sensor_id;sensor_type;location;lat;lon;timestamp;P1;durP1;ratioP1;P2;durP2;ratioP2
51848;SDS011;38952;51.090;-1.832;2022-10-23T00:01:15;4.57;;;1.90;;
51848;SDS011;38952;51.090;-1.832;2022-10-23T00:03:43;7.80;;;1.92;;
51848;SDS011;38952;51.090;-1.832;2022-10-23T00:06:09;6.47;;;1.73;;
51848;SDS011;38952;51.090;-1.832;2022-10-23T00:08:36;5.47;;;1.83;;
51848;SDS011;38952;51.090;-1.832;2022-10-23T00:11:05;7.88;;;2.28;;
51848;SDS011;38952;51.090;-1.832;2022-10-23T00:13:34;8.25;;;1.77;;
51848;SDS011;38952;51.090;-1.832;2022-10-23T00:16:00;6.88;;;2.10;;
51848;SDS011;38952;51.090;-1.832;2022-10-23T00:18:26;4.15;;;1.52;;
51848;SDS011;38952;51.090;-1.832;2022-10-23T00:20:51;8.20;;;1.85;;
51848;SDS011;38952;51.090;-1.832;2022-10-23T00:23:17;7.30;;;1.70;;
51848;SDS011;38952;51.090;-1.832;2022-10-23T00:25:43;9.10;;;2.47;;
51848;SDS011;38952;51.090;-1.832;2022-10-23T00:28:09;5.50;;;1.85;;
51848;SDS011;38952;51.090;-1.832;2022-10-23T00:30:34;4.30;;;1.77;;
51848;SDS011;38952;51.090;-1.832;2022-10-23T00:33:00;4.63;;;1.63;;
51848;SDS011;38952;51.090;-1.832;2022-10-23T00:35:25;4.25;;;1.63;;
51848;SDS011;38952;51.090;-1.832;2022-10-23T00:37:51;7.65;;;2.38;;
51848;SDS011;38952;51.090;-1.832;2022-10-23T00:40:16;6.50;;;1.85;;
51848;SDS011;38952;51.090;-1.832;2022-10-23T00:42:42;7.47;;;2.08;;
51848;SDS011;38952;51.090;-1.832;2022-10-23T00:45:19;7.50;;;1.40;;
51848;SDS011;38952;51.090;-1.832;2022-10-23T00:47:51;6.55;;;1.40;;
51848;SDS011;38952;51.090;-1.832;2022-10-23T00:50:17;4.95;;;1.52;;
51848;SDS011;38952;51.090;-1.832;2022-10-23T00:52:45;2.47;;;1.13;;
51848;SDS011;38952;51.090;-1.832;2022-10-23T00:55:13;4.57;;;1.48;;
51848;SDS011;38952;51.090;-1.832;2022-10-23T00:57:44;3.10;;;1.20;;
51848;SDS011;38952;51.090;-1.832;2022-10-23T01:00:24;3.13;;;1.40;;
51848;SDS011;38952;51.090;-1.832;2022-10-23T01:03:10;3.75;;;1.58;;
51848;SDS011;38952;51.090;-1.832;2022-10-23T01:05:57;4.35;;;1.60;;
51848;SDS011;38952;51.090;-1.832;2022-10-23T01:09:01;3.58;;;1.50;;
51848;SDS011;38952;51.090;-1.832;2022-10-23T01:11:38;3.95;;;1.73;;
51848;SDS011;38952;51.090;-1.832;2022-10-23T01:14:32;7.15;;;1.50;;
51848;SDS011;38952;51.090;-1.832;2022-10-23T01:17:16;3.97;;;1.50;;
51848;SDS011;38952;51.090;-1.832;2022-10-23T01:20:00;4.68;;;1.42;;
51848;SDS011;38952;51.090;-1.832;2022-10-23T01:28:04;3.47;;;1.15;;
51848;SDS011;38952;51.090;-1.832;2022-10-23T01:30:33;4.45;;;1.73;;
51848;SDS011;38952;51.090;-1.832;2022-10-23T01:33:05;4.05;;;1.60;;
51848;SDS011;38952;51.090;-1.832;2022-10-23T01:35:46;3.75;;;1.60;;
51848;SDS011;38952;51.090;-1.832;2022-10-23T01:40:47;5.05;;;2.05;;
51848;SDS011;38952;51.090;-1.832;2022-10-23T01:43:57;1.88;;;1.35;;
51848;SDS011;38952;51.090;-1.832;2022-10-23T01:46:20;2.67;;;1.30;;
51848;SDS011;38952;51.090;-1.832;2022-10-23T01:48:49;4.47;;;1.65;;
51848;SDS011;38952;51.090;-1.832;2022-10-23T01:51:18;2.92;;;1.40;;
51848;SDS011;38952;51.090;-1.832;2022-10-23T01:53:47;4.40;;;1.60;;
51848;SDS011;38952;51.090;-1.832;2022-10-23T01:56:16;9.70;;;1.70;;
51848;SDS011;38952;51.090;-1.832;2022-10-23T01:58:47;4.50;;;1.52;;
51848;SDS011;38952;51.090;-1.832;2022-10-23T02:01:15;4.78;;;1.40;;
51848;SDS011;38952;51.090;-1.832;2022-10-23T02:03:44;3.88;;;1.50;;
51848;SDS011;38952;51.090;-1.832;2022-10-23T02:06:11;2.83;;;1.25;;
51848;SDS011;38952;51.090;-1.832;2022-10-23T02:08:37;6.38;;;1.60;;
51848;SDS011;38952;51.090;-1.832;2022-10-23T02:11:09;3.75;;;1.80;;
51848;SDS011;38952;51.090;-1.832;2022-10-23T02:14:00;7.88;;;1.20;;
51848;SDS011;38952;51.090;-1.832;2022-10-23T02:21:59;5.65;;;1.30;;
51848;SDS011;38952;51.090;-1.832;2022-10-23T02:24:53;3.55;;;1.65;;
51848;SDS011;38952;51.090;-1.832;2022-10-23T02:27:57;4.18;;;1.35;;
51848;SDS011;38952;51.090;-1.832;2022-10-23T02:30:18;6.67;;;1.80;;
51848;SDS011;38952;51.090;-1.832;2022-10-23T02:32:46;7.28;;;1.55;;
51848;SDS011;38952;51.090;-1.832;2022-10-23T02:35:14;6.07;;;1.42;;
51848;SDS011;38952;51.090;-1.832;2022-10-23T02:37:41;3.47;;;1.40;;
51848;SDS011;38952;51.090;-1.832;2022-10-23T02:40:06;3.90;;;1.73;;
51848;SDS011;38952;51.090;-1.832;2022-10-23T02:42:35;4.45;;;2.13;;
51848;SDS011;38952;51.090;-1.832;2022-10-23T02:45:28;5.97;;;1.40;;
51848;SDS011;38952;51.090;-1.832;2022-10-23T02:48:10;5.65;;;1.42;;
51848;SDS011;38952;51.090;-1.832;2022-10-23T02:50:48;4.80;;;1.23;;
51848;SDS011;38952;51.090;-1.832;2022-10-23T02:56:09;8.18;;;1.45;;
51848;SDS011;38952;51.090;-1.832;2022-10-23T02:59:08;4.57;;;1.30;;
51848;SDS011;38952;51.090;-1.832;2022-10-23T03:01:53;3.72;;;1.45;;
51848;SDS011;38952;51.090;-1.832;2022-10-23T03:04:50;6.93;;;1.55;;
51848;SDS011;38952;51.090;-1.832;2022-10-23T03:07:18;8.90;;;1.33;;
51848;SDS011;38952;51.090;-1.832;2022-10-23T03:09:47;4.90;;;1.58;;
51848;SDS011;38952;51.090;-1.832;2022-10-23T03:12:16;5.72;;;1.63;;
51848;SDS011;38952;51.090;-1.832;2022-10-23T03:14:45;3.55;;;1.33;;
51848;SDS011;38952;51.090;-1.832;2022-10-23T03:17:14;3.88;;;1.58;;
51848;SDS011;38952;51.090;-1.832;2022-10-23T03:22:16;4.43;;;1.13;;
51848;SDS011;38952;51.090;-1.832;2022-10-23T03:24:48;5.07;;;1.77;;
51848;SDS011;38952;51.090;-1.832;2022-10-23T03:27:13;4.25;;;1.50;;
51848;SDS011;38952;51.090;-1.832;2022-10-23T03:29:50;4.65;;;1.38;;
51848;SDS011;38952;51.090;-1.832;2022-10-23T03:32:24;3.42;;;1.10;;
51848;SDS011;38952;51.090;-1.832;2022-10-23T03:34:55;2.95;;;1.10;;
51848;SDS011;38952;51.090;-1.832;2022-10-23T03:37:27;5.15;;;1.13;;
51848;SDS011;38952;51.090;-1.832;2022-10-23T03:39:53;3.05;;;1.45;;
51848;SDS011;38952;51.090;-1.832;2022-10-23T03:42:19;3.38;;;1.30;;
51848;SDS011;38952;51.090;-1.832;2022-10-23T03:44:44;5.07;;;1.13;;
51848;SDS011;38952;51.090;-1.832;2022-10-23T03:47:10;3.97;;;1.55;;
51848;SDS011;38952;51.090;-1.832;2022-10-23T03:49:36;7.35;;;1.50;;
51848;SDS011;38952;51.090;-1.832;2022-10-23T03:52:02;7.25;;;1.30;;
51848;SDS011;38952;51.090;-1.832;2022-10-23T03:54:28;3.13;;;1.58;;
51848;SDS011;38952;51.090;-1.832;2022-10-23T03:56:54;5.80;;;1.20;;
51848;SDS011;38952;51.090;-1.832;2022-10-23T03:59:20;8.45;;;1.08;;
51848;SDS011;38952;51.090;-1.832;2022-10-23T04:01:48;5.30;;;1.08;;
51848;SDS011;38952;51.090;-1.832;2022-10-23T04:04:16;3.80;;;1.17;;
51848;SDS011;38952;51.090;-1.832;2022-10-23T04:06:42;5.05;;;1.40;;
51848;SDS011;38952;51.090;-1.832;2022-10-23T04:09:07;13.93;;;1.20;;
51848;SDS011;38952;51.090;-1.832;2022-10-23T04:11:33;2.58;;;1.10;;
51848;SDS011;38952;51.090;-1.832;2022-10-23T04:13:58;2.22;;;0.82;;
51848;SDS011;38952;51.090;-1.832;2022-10-23T04:16:24;2.88;;;0.88;;
51848;SDS011;38952;51.090;-1.832;2022-10-23T04:18:50;7.00;;;1.00;;
51848;SDS011;38952;51.090;-1.832;2022-10-23T04:21:15;5.45;;;1.10;;
51848;SDS011;38952;51.090;-1.832;2022-10-23T04:23:41;4.25;;;1.15;;
51848;SDS011;38952;51.090;-1.832;2022-10-23T04:26:09;10.05;;;1.10;;
51848;SDS011;38952;51.090;-1.832;2022-10-23T04:28:35;2.85;;;1.33;;
51848;SDS011;38952;51.090;-1.832;2022-10-23T04:31:00;0.93;;;0.75;;
51848;SDS011;38952;51.090;-1.832;2022-10-23T04:33:26;3.83;;;0.90;;
51848;SDS011;38952;51.090;-1.832;2022-10-23T04:35:51;5.53;;;1.33;;
51848;SDS011;38952;51.090;-1.832;2022-10-23T04:38:17;3.15;;;1.10;;
51848;SDS011;38952;51.090;-1.832;2022-10-23T04:40:42;2.45;;;1.15;;
51848;SDS011;38952;51.090;-1.832;2022-10-23T04:43:08;3.00;;;0.93;;
51848;SDS011;38952;51.090;-1.832;2022-10-23T04:45:34;3.47;;;1.20;;
51848;SDS011;38952;51.090;-1.832;2022-10-23T04:47:59;3.10;;;0.80;;
51848;SDS011;38952;51.090;-1.832;2022-10-23T04:50:24;2.55;;;0.77;;
51848;SDS011;38952;51.090;-1.832;2022-10-23T04:52:54;3.22;;;0.93;;
51848;SDS011;38952;51.090;-1.832;2022-10-23T04:55:20;5.82;;;0.90;;
51848;SDS011;38952;51.090;-1.832;2022-10-23T04:57:46;3.97;;;1.02;;
51848;SDS011;38952;51.090;-1.832;2022-10-23T05:00:12;7.35;;;1.48;;
51848;SDS011;38952;51.090;-1.832;2022-10-23T05:02:38;3.28;;;1.17;;
51848;SDS011;38952;51.090;-1.832;2022-10-23T05:05:04;3.97;;;1.05;;
51848;SDS011;38952;51.090;-1.832;2022-10-23T05:07:31;3.13;;;0.90;;
51848;SDS011;38952;51.090;-1.832;2022-10-23T05:09:57;3.53;;;0.90;;
51848;SDS011;38952;51.090;-1.832;2022-10-23T05:12:22;4.78;;;1.10;;
51848;SDS011;38952;51.090;-1.832;2022-10-23T05:14:50;2.08;;;0.95;;
51848;SDS011;38952;51.090;-1.832;2022-10-23T05:17:17;4.32;;;1.08;;
51848;SDS011;38952;51.090;-1.832;2022-10-23T05:19:49;3.13;;;0.93;;
51848;SDS011;38952;51.090;-1.832;2022-10-23T05:22:17;2.40;;;0.82;;
51848;SDS011;38952;51.090;-1.832;2022-10-23T05:24:44;3.22;;;1.10;;
51848;SDS011;38952;51.090;-1.832;2022-10-23T05:27:10;4.55;;;1.13;;
51848;SDS011;38952;51.090;-1.832;2022-10-23T05:29:37;2.58;;;0.82;;
51848;SDS011;38952;51.090;-1.832;2022-10-23T05:32:03;3.08;;;1.10;;
51848;SDS011;38952;51.090;-1.832;2022-10-23T05:34:31;1.35;;;0.85;;
51848;SDS011;38952;51.090;-1.832;2022-10-23T05:37:06;1.75;;;0.90;;
51848;SDS011;38952;51.090;-1.832;2022-10-23T05:39:34;4.93;;;1.15;;
51848;SDS011;38952;51.090;-1.832;2022-10-23T05:42:02;1.23;;;0.75;;
51848;SDS011;38952;51.090;-1.832;2022-10-23T05:44:28;1.88;;;0.98;;
51848;SDS011;38952;51.090;-1.832;2022-10-23T05:46:53;2.63;;;0.85;;
51848;SDS011;38952;51.090;-1.832;2022-10-23T05:49:19;2.95;;;1.15;;
51848;SDS011;38952;51.090;-1.832;2022-10-23T05:51:44;1.65;;;0.80;;
51848;SDS011;38952;51.090;-1.832;2022-10-23T05:54:10;2.00;;;0.82;;
51848;SDS011;38952;51.090;-1.832;2022-10-23T05:56:36;4.00;;;1.10;;
51848;SDS011;38952;51.090;-1.832;2022-10-23T05:59:03;4.88;;;1.27;;
51848;SDS011;38952;51.090;-1.832;2022-10-23T06:01:29;3.33;;;1.15;;
51848;SDS011;38952;51.090;-1.832;2022-10-23T06:03:54;3.50;;;0.88;;
51848;SDS011;38952;51.090;-1.832;2022-10-23T06:06:22;5.00;;;1.33;;
51848;SDS011;38952;51.090;-1.832;2022-10-23T06:08:47;3.03;;;1.23;;
51848;SDS011;38952;51.090;-1.832;2022-10-23T06:11:13;4.93;;;0.98;;
51848;SDS011;38952;51.090;-1.832;2022-10-23T06:13:42;5.95;;;2.03;;
51848;SDS011;38952;51.090;-1.832;2022-10-23T06:16:19;3.60;;;1.02;;
51848;SDS011;38952;51.090;-1.832;2022-10-23T06:18:50;6.25;;;2.20;;
51848;SDS011;38952;51.090;-1.832;2022-10-23T06:21:16;4.10;;;1.20;;
51848;SDS011;38952;51.090;-1.832;2022-10-23T06:23:42;2.95;;;1.38;;
51848;SDS011;38952;51.090;-1.832;2022-10-23T06:26:10;8.48;;;1.38;;
51848;SDS011;38952;51.090;-1.832;2022-10-23T06:28:38;4.15;;;1.70;;
51848;SDS011;38952;51.090;-1.832;2022-10-23T06:31:04;7.38;;;1.27;;
51848;SDS011;38952;51.090;-1.832;2022-10-23T06:33:36;6.90;;;1.73;;
51848;SDS011;38952;51.090;-1.832;2022-10-23T06:36:01;7.40;;;2.00;;
51848;SDS011;38952;51.090;-1.832;2022-10-23T06:38:29;6.90;;;1.42;;
51848;SDS011;38952;51.090;-1.832;2022-10-23T06:41:00;6.55;;;1.23;;
51848;SDS011;38952;51.090;-1.832;2022-10-23T06:43:26;6.53;;;1.52;;
51848;SDS011;38952;51.090;-1.832;2022-10-23T06:45:52;2.53;;;1.00;;
51848;SDS011;38952;51.090;-1.832;2022-10-23T06:48:17;4.38;;;1.08;;
51848;SDS011;38952;51.090;-1.832;2022-10-23T06:50:43;5.05;;;0.80;;
51848;SDS011;38952;51.090;-1.832;2022-10-23T06:53:08;3.78;;;0.73;;
51848;SDS011;38952;51.090;-1.832;2022-10-23T06:55:36;2.30;;;0.88;;
51848;SDS011;38952;51.090;-1.832;2022-10-23T06:58:04;1.83;;;1.02;;
51848;SDS011;38952;51.090;-1.832;2022-10-23T07:00:34;1.63;;;0.60;;
51848;SDS011;38952;51.090;-1.832;2022-10-23T07:03:03;0.80;;;0.70;;
51848;SDS011;38952;51.090;-1.832;2022-10-23T07:05:32;1.33;;;0.60;;
51848;SDS011;38952;51.090;-1.832;2022-10-23T07:07:58;0.40;;;0.30;;
51848;SDS011;38952;51.090;-1.832;2022-10-23T07:10:23;1.50;;;0.47;;
51848;SDS011;38952;51.090;-1.832;2022-10-23T07:12:52;1.50;;;0.73;;
51848;SDS011;38952;51.090;-1.832;2022-10-23T07:15:32;5.45;;;1.10;;
51848;SDS011;38952;51.090;-1.832;2022-10-23T07:17:57;1.65;;;0.60;;
51848;SDS011;38952;51.090;-1.832;2022-10-23T07:20:23;2.08;;;0.80;;
51848;SDS011;38952;51.090;-1.832;2022-10-23T07:22:54;1.30;;;0.90;;
51848;SDS011;38952;51.090;-1.832;2022-10-23T07:25:21;3.97;;;0.80;;
51848;SDS011;38952;51.090;-1.832;2022-10-23T07:30:37;2.78;;;0.77;;
51848;SDS011;38952;51.090;-1.832;2022-10-23T07:33:05;1.95;;;0.70;;
51848;SDS011;38952;51.090;-1.832;2022-10-23T07:38:34;1.40;;;0.50;;
51848;SDS011;38952;51.090;-1.832;2022-10-23T07:41:02;1.63;;;0.60;;
51848;SDS011;38952;51.090;-1.832;2022-10-23T07:43:31;1.80;;;0.50;;
51848;SDS011;38952;51.090;-1.832;2022-10-23T07:46:04;1.17;;;0.52;;
51848;SDS011;38952;51.090;-1.832;2022-10-23T07:48:32;0.52;;;0.40;;
51848;SDS011;38952;51.090;-1.832;2022-10-23T07:51:03;1.20;;;0.50;;
51848;SDS011;38952;51.090;-1.832;2022-10-23T07:53:32;1.33;;;0.50;;
51848;SDS011;38952;51.090;-1.832;2022-10-23T07:56:02;1.60;;;0.65;;
51848;SDS011;38952;51.090;-1.832;2022-10-23T07:58:34;0.40;;;0.40;;
51848;SDS011;38952;51.090;-1.832;2022-10-23T08:01:02;4.53;;;0.90;;
51848;SDS011;38952;51.090;-1.832;2022-10-23T08:03:39;2.30;;;0.77;;
51848;SDS011;38952;51.090;-1.832;2022-10-23T08:06:07;2.08;;;0.73;;
51848;SDS011;38952;51.090;-1.832;2022-10-23T08:08:33;1.92;;;0.95;;
51848;SDS011;38952;51.090;-1.832;2022-10-23T08:10:58;2.58;;;0.60;;
51848;SDS011;38952;51.090;-1.832;2022-10-23T08:13:27;3.42;;;0.82;;
51848;SDS011;38952;51.090;-1.832;2022-10-23T08:15:52;1.40;;;0.57;;
51848;SDS011;38952;51.090;-1.832;2022-10-23T08:18:39;0.47;;;0.45;;
51848;SDS011;38952;51.090;-1.832;2022-10-23T08:21:23;1.05;;;0.50;;
51848;SDS011;38952;51.090;-1.832;2022-10-23T08:23:58;1.75;;;0.47;;
51848;SDS011;38952;51.090;-1.832;2022-10-23T08:26:44;1.00;;;0.60;;
51848;SDS011;38952;51.090;-1.832;2022-10-23T08:29:15;3.88;;;0.77;;
51848;SDS011;38952;51.090;-1.832;2022-10-23T08:31:45;2.80;;;0.90;;
51848;SDS011;38952;51.090;-1.832;2022-10-23T08:34:13;1.60;;;0.60;;
51848;SDS011;38952;51.090;-1.832;2022-10-23T08:36:46;5.97;;;0.70;;
51848;SDS011;38952;51.090;-1.832;2022-10-23T08:39:14;1.85;;;0.90;;
51848;SDS011;38952;51.090;-1.832;2022-10-23T08:44:58;4.63;;;0.98;;
51848;SDS011;38952;51.090;-1.832;2022-10-23T08:51:12;3.05;;;0.98;;
51848;SDS011;38952;51.090;-1.832;2022-10-23T08:56:28;3.45;;;1.00;;
51848;SDS011;38952;51.090;-1.832;2022-10-23T08:59:00;5.97;;;0.93;;
51848;SDS011;38952;51.090;-1.832;2022-10-23T09:01:46;2.50;;;0.75;;
51848;SDS011;38952;51.090;-1.832;2022-10-23T09:04:21;9.63;;;1.20;;
51848;SDS011;38952;51.090;-1.832;2022-10-23T09:12:20;1.95;;;0.82;;
51848;SDS011;38952;51.090;-1.832;2022-10-23T09:17:38;3.88;;;0.80;;
51848;SDS011;38952;51.090;-1.832;2022-10-23T09:20:23;2.90;;;0.73;;
51848;SDS011;38952;51.090;-1.832;2022-10-23T09:22:58;7.72;;;1.17;;
51848;SDS011;38952;51.090;-1.832;2022-10-23T09:25:27;4.15;;;0.80;;
51848;SDS011;38952;51.090;-1.832;2022-10-23T09:27:58;5.13;;;1.08;;
51848;SDS011;38952;51.090;-1.832;2022-10-23T09:33:00;2.65;;;0.73;;
51848;SDS011;38952;51.090;-1.832;2022-10-23T09:35:37;4.53;;;1.10;;
51848;SDS011;38952;51.090;-1.832;2022-10-23T09:38:02;2.40;;;1.02;;
51848;SDS011;38952;51.090;-1.832;2022-10-23T09:40:29;2.58;;;0.90;;
51848;SDS011;38952;51.090;-1.832;2022-10-23T09:43:01;2.53;;;0.75;;
51848;SDS011;38952;51.090;-1.832;2022-10-23T09:45:35;1.80;;;0.63;;
51848;SDS011;38952;51.090;-1.832;2022-10-23T09:48:13;5.57;;;0.90;;
51848;SDS011;38952;51.090;-1.832;2022-10-23T09:55:54;3.22;;;0.80;;
51848;SDS011;38952;51.090;-1.832;2022-10-23T09:58:24;3.75;;;0.77;;
51848;SDS011;38952;51.090;-1.832;2022-10-23T10:00:54;4.13;;;1.60;;
51848;SDS011;38952;51.090;-1.832;2022-10-23T10:03:21;2.28;;;0.70;;
51848;SDS011;38952;51.090;-1.832;2022-10-23T10:05:55;1.48;;;0.68;;
51848;SDS011;38952;51.090;-1.832;2022-10-23T10:19:35;5.78;;;0.60;;
51848;SDS011;38952;51.090;-1.832;2022-10-23T10:22:26;1.90;;;0.63;;
51848;SDS011;38952;51.090;-1.832;2022-10-23T10:25:20;3.63;;;0.95;;
51848;SDS011;38952;51.090;-1.832;2022-10-23T10:30:22;5.55;;;0.88;;
51848;SDS011;38952;51.090;-1.832;2022-10-23T10:35:22;4.25;;;1.05;;
51848;SDS011;38952;51.090;-1.832;2022-10-23T10:43:43;3.90;;;0.82;;
51848;SDS011;38952;51.090;-1.832;2022-10-23T10:49:06;2.80;;;0.63;;
51848;SDS011;38952;51.090;-1.832;2022-10-23T10:52:08;3.80;;;0.70;;
51848;SDS011;38952;51.090;-1.832;2022-10-23T10:57:39;3.45;;;1.42;;
51848;SDS011;38952;51.090;-1.832;2022-10-23T11:00:15;2.45;;;0.60;;
51848;SDS011;38952;51.090;-1.832;2022-10-23T11:07:40;2.33;;;0.80;;
51848;SDS011;38952;51.090;-1.832;2022-10-23T11:10:16;3.92;;;0.43;;
51848;SDS011;38952;51.090;-1.832;2022-10-23T11:12:44;3.47;;;0.68;;
51848;SDS011;38952;51.090;-1.832;2022-10-23T11:15:15;7.20;;;0.63;;
51848;SDS011;38952;51.090;-1.832;2022-10-23T11:17:46;1.67;;;0.50;;
51848;SDS011;38952;51.090;-1.832;2022-10-23T11:24:01;1.33;;;0.45;;
51848;SDS011;38952;51.090;-1.832;2022-10-23T11:37:20;1.20;;;0.40;;
51848;SDS011;38952;51.090;-1.832;2022-10-23T11:39:58;3.45;;;0.93;;
51848;SDS011;38952;51.090;-1.832;2022-10-23T11:42:54;1.85;;;0.55;;
51848;SDS011;38952;51.090;-1.832;2022-10-23T11:45:25;1.00;;;0.30;;
51848;SDS011;38952;51.090;-1.832;2022-10-23T11:47:59;2.85;;;0.50;;
51848;SDS011;38952;51.090;-1.832;2022-10-23T11:50:32;2.08;;;0.50;;
51848;SDS011;38952;51.090;-1.832;2022-10-23T11:56:26;1.90;;;0.28;;
51848;SDS011;38952;51.090;-1.832;2022-10-23T11:58:55;2.47;;;0.60;;
51848;SDS011;38952;51.090;-1.832;2022-10-23T12:01:26;5.47;;;0.57;;
51848;SDS011;38952;51.090;-1.832;2022-10-23T12:04:19;2.42;;;0.65;;
51848;SDS011;38952;51.090;-1.832;2022-10-23T12:06:47;1.90;;;0.50;;
51848;SDS011;38952;51.090;-1.832;2022-10-23T12:09:38;1.73;;;0.38;;
51848;SDS011;38952;51.090;-1.832;2022-10-23T12:20:12;0.45;;;0.30;;
51848;SDS011;38952;51.090;-1.832;2022-10-23T12:22:51;2.50;;;0.45;;
51848;SDS011;38952;51.090;-1.832;2022-10-23T12:34:07;2.20;;;0.50;;
51848;SDS011;38952;51.090;-1.832;2022-10-23T12:39:50;2.58;;;0.50;;
51848;SDS011;38952;51.090;-1.832;2022-10-23T12:42:21;0.82;;;0.35;;
51848;SDS011;38952;51.090;-1.832;2022-10-23T12:44:58;1.83;;;0.47;;
51848;SDS011;38952;51.090;-1.832;2022-10-23T12:47:25;2.03;;;0.45;;
51848;SDS011;38952;51.090;-1.832;2022-10-23T12:49:53;1.65;;;0.50;;
51848;SDS011;38952;51.090;-1.832;2022-10-23T12:52:19;0.80;;;0.40;;
51848;SDS011;38952;51.090;-1.832;2022-10-23T12:54:46;4.90;;;0.60;;
51848;SDS011;38952;51.090;-1.832;2022-10-23T12:59:47;1.42;;;0.38;;
51848;SDS011;38952;51.090;-1.832;2022-10-23T13:04:47;1.58;;;0.45;;
51848;SDS011;38952;51.090;-1.832;2022-10-23T13:07:16;0.63;;;0.20;;
51848;SDS011;38952;51.090;-1.832;2022-10-23T13:09:45;1.42;;;0.50;;
51848;SDS011;38952;51.090;-1.832;2022-10-23T13:12:20;0.85;;;0.17;;
51848;SDS011;38952;51.090;-1.832;2022-10-23T13:14:56;1.25;;;0.30;;
51848;SDS011;38952;51.090;-1.832;2022-10-23T13:22:57;1.30;;;0.63;;
51848;SDS011;38952;51.090;-1.832;2022-10-23T13:25:29;2.40;;;0.50;;
51848;SDS011;38952;51.090;-1.832;2022-10-23T13:28:21;3.22;;;0.73;;
51848;SDS011;38952;51.090;-1.832;2022-10-23T13:31:02;1.25;;;0.50;;
51848;SDS011;38952;51.090;-1.832;2022-10-23T13:33:38;5.57;;;0.80;;
51848;SDS011;38952;51.090;-1.832;2022-10-23T13:38:39;0.88;;;0.40;;
51848;SDS011;38952;51.090;-1.832;2022-10-23T13:41:15;2.00;;;0.40;;
51848;SDS011;38952;51.090;-1.832;2022-10-23T13:43:44;2.60;;;0.50;;
51848;SDS011;38952;51.090;-1.832;2022-10-23T13:46:12;2.08;;;0.70;;
51848;SDS011;38952;51.090;-1.832;2022-10-23T13:48:44;1.30;;;0.40;;
51848;SDS011;38952;51.090;-1.832;2022-10-23T13:51:15;0.98;;;0.40;;
51848;SDS011;38952;51.090;-1.832;2022-10-23T13:53:58;2.63;;;0.55;;
51848;SDS011;38952;51.090;-1.832;2022-10-23T13:56:26;1.20;;;0.38;;
51848;SDS011;38952;51.090;-1.832;2022-10-23T13:58:52;1.13;;;0.35;;
51848;SDS011;38952;51.090;-1.832;2022-10-23T14:01:22;1.05;;;0.43;;
51848;SDS011;38952;51.090;-1.832;2022-10-23T14:03:50;1.45;;;0.60;;
51848;SDS011;38952;51.090;-1.832;2022-10-23T14:06:30;0.73;;;0.10;;
51848;SDS011;38952;51.090;-1.832;2022-10-23T14:08:57;0.90;;;0.30;;
51848;SDS011;38952;51.090;-1.832;2022-10-23T14:12:02;0.40;;;0.30;;
51848;SDS011;38952;51.090;-1.832;2022-10-23T14:15:01;1.60;;;0.40;;
51848;SDS011;38952;51.090;-1.832;2022-10-23T14:18:10;1.13;;;0.28;;
51848;SDS011;38952;51.090;-1.832;2022-10-23T14:20:51;1.40;;;0.50;;
51848;SDS011;38952;51.090;-1.832;2022-10-23T14:23:30;0.73;;;0.30;;
51848;SDS011;38952;51.090;-1.832;2022-10-23T14:33:00;2.47;;;0.60;;
51848;SDS011;38952;51.090;-1.832;2022-10-23T14:41:59;3.03;;;0.70;;
51848;SDS011;38952;51.090;-1.832;2022-10-23T14:45:01;2.83;;;0.70;;
51848;SDS011;38952;51.090;-1.832;2022-10-23T14:47:37;2.58;;;0.65;;
51848;SDS011;38952;51.090;-1.832;2022-10-23T14:50:34;2.47;;;0.68;;
51848;SDS011;38952;51.090;-1.832;2022-10-23T14:53:14;1.88;;;0.70;;
51848;SDS011;38952;51.090;-1.832;2022-10-23T14:55:43;0.88;;;0.40;;
51848;SDS011;38952;51.090;-1.832;2022-10-23T14:58:25;1.67;;;0.60;;
51848;SDS011;38952;51.090;-1.832;2022-10-23T15:00:57;5.22;;;0.70;;
51848;SDS011;38952;51.090;-1.832;2022-10-23T15:03:37;0.47;;;0.40;;
51848;SDS011;38952;51.090;-1.832;2022-10-23T15:06:15;2.17;;;1.10;;
51848;SDS011;38952;51.090;-1.832;2022-10-23T15:11:53;6.45;;;1.70;;
51848;SDS011;38952;51.090;-1.832;2022-10-23T15:14:51;3.70;;;0.80;;
51848;SDS011;38952;51.090;-1.832;2022-10-23T15:17:22;1.70;;;0.63;;
51848;SDS011;38952;51.090;-1.832;2022-10-23T15:19:48;1.75;;;0.65;;
51848;SDS011;38952;51.090;-1.832;2022-10-23T15:22:13;1.58;;;0.60;;
51848;SDS011;38952;51.090;-1.832;2022-10-23T15:24:46;1.05;;;0.60;;
51848;SDS011;38952;51.090;-1.832;2022-10-23T15:27:12;3.80;;;0.98;;
51848;SDS011;38952;51.090;-1.832;2022-10-23T15:29:39;1.85;;;0.80;;
51848;SDS011;38952;51.090;-1.832;2022-10-23T15:32:07;12.20;;;0.60;;
51848;SDS011;38952;51.090;-1.832;2022-10-23T15:34:34;2.47;;;0.50;;
51848;SDS011;38952;51.090;-1.832;2022-10-23T15:37:06;5.57;;;0.50;;
51848;SDS011;38952;51.090;-1.832;2022-10-23T15:39:33;1.63;;;0.43;;
51848;SDS011;38952;51.090;-1.832;2022-10-23T15:42:00;0.75;;;0.50;;
51848;SDS011;38952;51.090;-1.832;2022-10-23T15:44:31;0.98;;;0.60;;
51848;SDS011;38952;51.090;-1.832;2022-10-23T15:46:57;0.43;;;0.43;;
51848;SDS011;38952;51.090;-1.832;2022-10-23T15:49:23;2.88;;;0.60;;
51848;SDS011;38952;51.090;-1.832;2022-10-23T15:51:52;1.58;;;0.60;;
51848;SDS011;38952;51.090;-1.832;2022-10-23T15:54:18;0.43;;;0.40;;
51848;SDS011;38952;51.090;-1.832;2022-10-23T15:56:45;1.52;;;0.60;;
51848;SDS011;38952;51.090;-1.832;2022-10-23T15:59:12;1.80;;;0.75;;
51848;SDS011;38952;51.090;-1.832;2022-10-23T16:01:38;1.55;;;0.90;;
51848;SDS011;38952;51.090;-1.832;2022-10-23T16:04:04;3.88;;;0.85;;
51848;SDS011;38952;51.090;-1.832;2022-10-23T16:06:29;2.75;;;1.10;;
51848;SDS011;38952;51.090;-1.832;2022-10-23T16:08:57;5.25;;;0.77;;
51848;SDS011;38952;51.090;-1.832;2022-10-23T16:11:27;3.08;;;0.70;;
51848;SDS011;38952;51.090;-1.832;2022-10-23T16:13:55;2.50;;;0.60;;
51848;SDS011;38952;51.090;-1.832;2022-10-23T16:16:21;2.53;;;0.95;;
51848;SDS011;38952;51.090;-1.832;2022-10-23T16:18:59;2.15;;;0.70;;
51848;SDS011;38952;51.090;-1.832;2022-10-23T16:21:27;3.42;;;0.52;;
51848;SDS011;38952;51.090;-1.832;2022-10-23T16:23:57;4.35;;;0.98;;
51848;SDS011;38952;51.090;-1.832;2022-10-23T16:26:24;1.65;;;0.70;;
51848;SDS011;38952;51.090;-1.832;2022-10-23T16:28:56;4.32;;;1.23;;
51848;SDS011;38952;51.090;-1.832;2022-10-23T16:31:26;2.38;;;0.90;;
51848;SDS011;38952;51.090;-1.832;2022-10-23T16:33:58;6.25;;;1.30;;
51848;SDS011;38952;51.090;-1.832;2022-10-23T16:36:27;5.13;;;1.58;;
51848;SDS011;38952;51.090;-1.832;2022-10-23T16:38:53;12.35;;;1.55;;
51848;SDS011;38952;51.090;-1.832;2022-10-23T16:41:19;8.50;;;1.52;;
51848;SDS011;38952;51.090;-1.832;2022-10-23T16:43:44;5.63;;;1.15;;
51848;SDS011;38952;51.090;-1.832;2022-10-23T16:46:11;2.78;;;1.00;;
51848;SDS011;38952;51.090;-1.832;2022-10-23T16:48:43;10.73;;;2.40;;
51848;SDS011;38952;51.090;-1.832;2022-10-23T16:51:10;8.23;;;2.40;;
51848;SDS011;38952;51.090;-1.832;2022-10-23T16:53:41;8.60;;;1.90;;
51848;SDS011;38952;51.090;-1.832;2022-10-23T16:56:08;10.95;;;2.45;;
51848;SDS011;38952;51.090;-1.832;2022-10-23T16:58:35;7.18;;;1.92;;
51848;SDS011;38952;51.090;-1.832;2022-10-23T17:01:13;11.23;;;2.22;;
51848;SDS011;38952;51.090;-1.832;2022-10-23T17:03:54;6.47;;;1.30;;
51848;SDS011;38952;51.090;-1.832;2022-10-23T17:06:30;10.52;;;1.33;;
51848;SDS011;38952;51.090;-1.832;2022-10-23T17:08:57;6.90;;;1.20;;
51848;SDS011;38952;51.090;-1.832;2022-10-23T17:11:25;7.65;;;1.48;;
51848;SDS011;38952;51.090;-1.832;2022-10-23T17:14:01;4.10;;;1.10;;
51848;SDS011;38952;51.090;-1.832;2022-10-23T17:16:32;7.93;;;1.55;;
51848;SDS011;38952;51.090;-1.832;2022-10-23T17:19:12;4.38;;;2.05;;
51848;SDS011;38952;51.090;-1.832;2022-10-23T17:22:05;7.82;;;1.67;;
51848;SDS011;38952;51.090;-1.832;2022-10-23T17:24:34;9.70;;;2.10;;
51848;SDS011;38952;51.090;-1.832;2022-10-23T17:27:00;10.43;;;1.90;;
51848;SDS011;38952;51.090;-1.832;2022-10-23T17:29:26;7.38;;;1.70;;